createdAt,value
2019-05-09T00:00:06.042Z,10.48
2019-05-09T00:01:06.007Z,10.59
2019-05-09T00:02:05.997Z,10.60
2019-05-09T00:03:06.007Z,10.48
2019-05-09T00:04:05.978Z,10.53
2019-05-09T00:05:05.962Z,10.52
2019-05-09T00:06:05.951Z,10.53
2019-05-09T00:07:05.961Z,10.52
2019-05-09T00:08:05.935Z,10.59
2019-05-09T00:09:05.919Z,10.51
2019-05-09T00:10:05.906Z,10.48
2019-05-09T00:11:05.904Z,10.48
2019-05-09T00:12:05.920Z,10.51
2019-05-09T00:13:05.900Z,10.56
2019-05-09T00:14:05.861Z,10.48
2019-05-09T00:15:05.857Z,10.51
2019-05-09T00:16:05.870Z,10.48
2019-05-09T00:17:05.829Z,10.45
2019-05-09T00:18:05.841Z,10.48
2019-05-09T00:19:05.804Z,10.56
2019-05-09T00:20:05.794Z,10.56
2019-05-09T00:21:05.784Z,10.53
2019-05-09T00:22:05.785Z,10.53
2019-05-09T00:23:05.781Z,10.56
2019-05-09T00:24:05.747Z,10.52
2019-05-09T00:25:05.736Z,10.55
2019-05-09T00:26:05.726Z,10.44
2019-05-09T00:27:05.714Z,10.42
2019-05-09T00:28:05.728Z,10.45
2019-05-09T00:29:05.692Z,10.47
2019-05-09T00:30:05.681Z,10.52
2019-05-09T00:31:05.668Z,10.47
2019-05-09T00:32:05.656Z,10.51
2019-05-09T00:33:05.668Z,10.47
2019-05-09T00:34:05.672Z,10.47
2019-05-09T00:35:05.622Z,10.51
2019-05-09T00:36:05.613Z,10.53
2019-05-09T00:37:05.607Z,10.45
2019-05-09T00:38:05.590Z,10.56
2019-05-09T00:39:05.609Z,10.44
2019-05-09T00:40:05.568Z,10.51
2019-05-09T00:41:05.556Z,10.40
2019-05-09T00:42:05.543Z,10.52
2019-05-09T00:43:05.533Z,10.48
2019-05-09T00:44:05.539Z,10.48
2019-05-09T00:45:05.517Z,10.48
2019-05-09T00:46:05.527Z,10.41
2019-05-09T00:47:05.487Z,10.47
2019-05-09T00:48:05.477Z,10.45
2019-05-09T00:49:05.467Z,10.44
2019-05-09T00:50:05.454Z,10.45
2019-05-09T00:51:05.469Z,10.40
2019-05-09T00:52:05.431Z,10.42
2019-05-09T00:53:05.420Z,10.40
2019-05-09T00:54:05.409Z,10.41
2019-05-09T00:55:05.408Z,10.47
2019-05-09T00:56:05.412Z,10.41
2019-05-09T00:57:05.375Z,10.53
2019-05-09T00:58:05.391Z,10.44
2019-05-09T00:59:05.354Z,10.52
2019-05-09T01:00:05.342Z,10.51
2019-05-09T01:01:05.356Z,10.36
2019-05-09T01:02:05.340Z,10.40
2019-05-09T01:03:05.310Z,10.38
2019-05-09T01:04:05.296Z,10.40
2019-05-09T01:05:05.284Z,10.41
2019-05-09T01:06:05.275Z,10.40
2019-05-09T01:07:05.284Z,10.42
2019-05-09T01:08:05.251Z,10.42
2019-05-09T01:09:05.240Z,10.41
2019-05-09T01:10:05.226Z,10.36
2019-05-09T01:11:12.100Z,10.36
2019-05-09T01:12:06.232Z,10.32
2019-05-09T01:13:05.200Z,10.26
2019-05-09T01:14:05.181Z,10.26
2019-05-09T01:15:05.176Z,10.32
2019-05-09T01:16:05.160Z,10.23
2019-05-09T01:17:05.176Z,10.26
2019-05-09T01:18:05.159Z,10.23
2019-05-09T01:19:05.124Z,10.25
2019-05-09T01:20:05.148Z,10.23
2019-05-09T01:21:05.104Z,10.27
2019-05-09T01:22:05.097Z,10.27
2019-05-09T01:23:05.085Z,10.14
2019-05-09T01:24:05.078Z,10.20
2019-05-09T01:25:05.074Z,10.18
2019-05-09T01:26:05.085Z,10.22
2019-05-09T01:27:05.035Z,10.18
2019-05-09T01:28:05.023Z,10.23
2019-05-09T01:29:05.012Z,10.20
2019-05-09T01:30:05.009Z,10.18
2019-05-09T01:31:05.019Z,10.14
2019-05-09T01:32:04.979Z,10.20
2019-05-09T01:33:04.974Z,10.17
2019-05-09T01:34:04.958Z,10.18
2019-05-09T01:35:04.975Z,10.22
2019-05-09T01:36:04.933Z,10.14
2019-05-09T01:37:04.923Z,10.22
2019-05-09T01:38:04.920Z,10.14
2019-05-09T01:39:04.903Z,10.17
2019-05-09T01:40:04.912Z,10.26
2019-05-09T01:41:04.881Z,10.20
2019-05-09T01:42:04.869Z,10.09
2019-05-09T01:43:04.854Z,10.22
2019-05-09T01:44:04.844Z,10.20
2019-05-09T01:45:04.859Z,10.20
2019-05-09T01:46:04.845Z,10.20
2019-05-09T01:47:04.825Z,10.09
2019-05-09T01:48:04.797Z,10.15
2019-05-09T01:49:04.786Z,10.18
2019-05-09T01:50:04.809Z,10.20
2019-05-09T01:51:04.768Z,10.09
2019-05-09T01:52:04.753Z,10.11
2019-05-09T01:53:04.740Z,10.14
2019-05-09T01:54:04.733Z,10.09
2019-05-09T01:55:04.745Z,10.07
2019-05-09T01:56:04.733Z,10.12
2019-05-09T01:57:04.715Z,10.05
2019-05-09T01:58:04.684Z,10.07
2019-05-09T01:59:04.673Z,10.08
2019-05-09T02:00:04.662Z,10.08
2019-05-09T02:01:04.657Z,10.05
2019-05-09T02:02:08.775Z,10.09
2019-05-09T02:03:04.656Z,10.04
2019-05-09T02:04:04.622Z,10.09
2019-05-09T02:05:04.608Z,10.02
2019-05-09T02:06:04.594Z,10.12
2019-05-09T02:07:04.586Z,10.08
2019-05-09T02:08:04.594Z,9.99
2019-05-09T02:09:04.564Z,10.01
2019-05-09T02:10:04.554Z,10.01
2019-05-09T02:11:04.537Z,9.99
2019-05-09T02:12:04.555Z,9.97
2019-05-09T02:13:04.539Z,10.07
2019-05-09T02:14:04.509Z,9.99
2019-05-09T02:15:04.494Z,10.04
2019-05-09T02:16:04.486Z,9.96
2019-05-09T02:17:04.476Z,9.94
2019-05-09T02:18:05.362Z,9.99
2019-05-09T02:19:04.453Z,9.97
2019-05-09T02:20:04.438Z,9.97
2019-05-09T02:21:04.424Z,9.90
2019-05-09T02:22:04.412Z,9.93
2019-05-09T02:23:04.431Z,9.87
2019-05-09T02:24:04.394Z,9.93
2019-05-09T02:25:04.430Z,9.91
2019-05-09T02:26:04.374Z,9.96
2019-05-09T02:27:04.401Z,9.96
2019-05-09T02:28:04.345Z,9.91
2019-05-09T02:29:04.334Z,9.96
2019-05-09T02:30:05.869Z,9.89
2019-05-09T02:31:05.369Z,9.91
2019-05-09T02:32:04.875Z,9.91
2019-05-09T02:33:05.113Z,9.99
2019-05-09T02:34:05.024Z,9.84
2019-05-09T02:35:05.071Z,9.94
2019-05-09T02:36:04.417Z,9.94
2019-05-09T02:37:04.248Z,9.94
2019-05-09T02:38:04.255Z,9.96
2019-05-09T02:39:04.234Z,9.90
2019-05-09T02:40:04.210Z,9.90
2019-05-09T02:41:04.224Z,9.90
2019-05-09T02:42:09.445Z,9.83
2019-05-09T02:43:05.182Z,9.90
2019-05-09T02:44:04.215Z,9.90
2019-05-09T02:45:04.188Z,9.81
2019-05-09T02:46:04.140Z,9.96
2019-05-09T02:47:04.130Z,9.93
2019-05-09T02:48:04.139Z,9.86
2019-05-09T02:49:04.110Z,9.87
2019-05-09T02:50:04.124Z,9.83
2019-05-09T02:51:04.101Z,9.74
2019-05-09T02:52:04.074Z,9.81
2019-05-09T02:53:04.087Z,9.78
2019-05-09T02:54:04.073Z,9.81
2019-05-09T02:55:04.042Z,9.83
2019-05-09T02:56:04.062Z,9.79
2019-05-09T02:57:04.034Z,9.84
2019-05-09T02:58:04.037Z,9.83
2019-05-09T02:59:04.039Z,9.79
2019-05-09T03:00:04.023Z,9.79
2019-05-09T03:01:04.026Z,9.74
2019-05-09T03:02:03.995Z,9.75
2019-05-09T03:03:04.024Z,9.69
2019-05-09T03:04:03.968Z,9.74
2019-05-09T03:05:03.964Z,9.72
2019-05-09T03:06:03.949Z,9.69
2019-05-09T03:07:03.935Z,9.74
2019-05-09T03:08:03.908Z,9.72
2019-05-09T03:09:03.883Z,9.75
2019-05-09T03:10:03.872Z,9.68
2019-05-09T03:11:03.858Z,9.76
2019-05-09T03:12:21.046Z,9.75
2019-05-09T03:13:04.836Z,9.65
2019-05-09T03:14:03.835Z,9.72
2019-05-09T03:15:03.838Z,9.65
2019-05-09T03:16:03.804Z,9.69
2019-05-09T03:17:03.822Z,9.60
2019-05-09T03:18:03.780Z,9.65
2019-05-09T03:19:03.768Z,9.72
2019-05-09T03:20:03.756Z,9.61
2019-05-09T03:21:03.772Z,9.64
2019-05-09T03:22:03.737Z,9.64
2019-05-09T03:23:03.724Z,9.65
2019-05-09T03:24:03.711Z,9.60
2019-05-09T03:25:03.734Z,9.61
2019-05-09T03:26:03.689Z,9.58
2019-05-09T03:27:03.708Z,9.61
2019-05-09T03:28:03.687Z,9.65
2019-05-09T03:29:03.658Z,9.53
2019-05-09T03:30:03.649Z,9.53
2019-05-09T03:31:03.632Z,9.53
2019-05-09T03:32:03.670Z,9.46
2019-05-09T03:33:03.612Z,9.53
2019-05-09T03:34:03.622Z,9.53
2019-05-09T03:35:03.585Z,9.47
2019-05-09T03:36:03.573Z,9.54
2019-05-09T03:37:03.564Z,9.50
2019-05-09T03:38:03.555Z,9.51
2019-05-09T03:39:03.567Z,9.47
2019-05-09T03:40:03.531Z,9.42
2019-05-09T03:41:03.518Z,9.47
2019-05-09T03:42:03.506Z,9.42
2019-05-09T03:43:03.495Z,9.35
2019-05-09T03:44:03.506Z,9.42
2019-05-09T03:45:03.478Z,9.31
2019-05-09T03:46:03.464Z,9.32
2019-05-09T03:47:03.450Z,9.39
2019-05-09T03:48:03.471Z,9.40
2019-05-09T03:49:03.429Z,9.48
2019-05-09T03:50:03.417Z,9.32
2019-05-09T03:51:03.410Z,9.36
2019-05-09T03:52:03.393Z,9.36
2019-05-09T03:53:03.410Z,9.29
2019-05-09T03:54:03.370Z,9.43
2019-05-09T03:55:03.362Z,9.31
2019-05-09T03:56:03.349Z,9.46
2019-05-09T03:57:03.363Z,9.36
2019-05-09T03:58:03.327Z,9.31
2019-05-09T03:59:03.315Z,9.35
2019-05-09T04:00:03.327Z,9.33
2019-05-09T04:01:03.291Z,9.35
2019-05-09T04:02:03.308Z,9.33
2019-05-09T04:03:03.285Z,9.32
2019-05-09T04:04:03.259Z,9.32
2019-05-09T04:05:03.248Z,9.33
2019-05-09T04:06:03.282Z,9.26
2019-05-09T04:07:03.267Z,9.23
2019-05-09T04:08:03.217Z,9.29
2019-05-09T04:09:03.203Z,9.24
2019-05-09T04:10:03.191Z,9.29
2019-05-09T04:11:03.180Z,9.29
2019-05-09T04:12:03.199Z,9.35
2019-05-09T04:13:03.159Z,9.36
2019-05-09T04:14:03.147Z,9.40
2019-05-09T04:15:03.134Z,9.33
2019-05-09T04:16:03.124Z,9.40
2019-05-09T04:17:03.136Z,9.32
2019-05-09T04:18:03.107Z,9.35
2019-05-09T04:19:03.090Z,9.40
2019-05-09T04:20:03.083Z,9.32
2019-05-09T04:21:03.072Z,9.39
2019-05-09T04:22:03.082Z,9.39
2019-05-09T04:23:03.047Z,9.42
2019-05-09T04:24:03.058Z,9.31
2019-05-09T04:25:03.024Z,9.38
2019-05-09T04:26:03.012Z,9.39
2019-05-09T04:27:03.023Z,9.42
2019-05-09T04:28:03.018Z,9.54
2019-05-09T04:29:02.977Z,9.56
2019-05-09T04:30:06.265Z,9.53
2019-05-09T04:31:03.953Z,9.48
2019-05-09T04:32:02.944Z,9.48
2019-05-09T04:33:02.963Z,9.39
2019-05-09T04:34:02.921Z,9.48
2019-05-09T04:35:02.944Z,9.46
2019-05-09T04:36:02.898Z,9.43
2019-05-09T04:37:02.887Z,9.56
2019-05-09T04:38:02.876Z,9.39
2019-05-09T04:39:02.886Z,9.46
2019-05-09T04:40:03.421Z,9.51
2019-05-09T04:41:02.849Z,9.43
2019-05-09T04:42:05.416Z,9.48
2019-05-09T04:43:14.079Z,9.43
2019-05-09T04:44:05.163Z,9.48
2019-05-09T04:45:05.805Z,9.48
2019-05-09T04:46:02.785Z,9.56
2019-05-09T04:47:03.821Z,9.48
2019-05-09T04:48:02.762Z,9.43
2019-05-09T04:49:02.794Z,9.38
2019-05-09T04:50:02.764Z,9.42
2019-05-09T04:51:02.731Z,9.42
2019-05-09T04:52:02.720Z,9.47
2019-05-09T04:53:02.727Z,9.50
2019-05-09T04:54:02.692Z,9.53
2019-05-09T04:55:02.682Z,9.47
2019-05-09T04:56:02.673Z,9.57
2019-05-09T04:57:02.662Z,9.53
2019-05-09T04:58:02.671Z,9.53
2019-05-09T04:59:02.642Z,9.58
2019-05-09T05:00:02.625Z,9.54
2019-05-09T05:01:02.614Z,9.46
2019-05-09T05:02:02.626Z,9.50
2019-05-09T05:03:02.592Z,9.51
2019-05-09T05:04:02.599Z,9.53
2019-05-09T05:05:02.575Z,9.50
2019-05-09T05:06:02.559Z,9.51
2019-05-09T05:07:02.571Z,9.51
2019-05-09T05:08:02.534Z,9.51
2019-05-09T05:09:02.523Z,9.40
2019-05-09T05:10:02.521Z,9.50
2019-05-09T05:11:02.534Z,9.46
2019-05-09T05:12:02.492Z,9.51
2019-05-09T05:13:02.479Z,9.60
2019-05-09T05:14:02.467Z,9.64
2019-05-09T05:15:02.455Z,9.68
2019-05-09T05:16:02.466Z,9.75
2019-05-09T05:17:07.751Z,9.78
2019-05-09T05:18:03.425Z,9.94
2019-05-09T05:19:02.410Z,9.90
2019-05-09T05:20:02.400Z,10.09
2019-05-09T05:21:02.402Z,10.41
2019-05-09T05:22:02.388Z,10.99
2019-05-09T05:23:02.402Z,11.40
2019-05-09T05:24:02.355Z,11.79
2019-05-09T05:25:02.356Z,12.10
2019-05-09T05:26:02.332Z,12.24
2019-05-09T05:27:02.330Z,12.38
2019-05-09T05:28:02.333Z,12.29
2019-05-09T05:29:02.297Z,12.14
2019-05-09T05:30:02.325Z,11.85
2019-05-09T05:31:02.276Z,11.76
2019-05-09T05:32:02.263Z,11.42
2019-05-09T05:33:02.295Z,11.28
2019-05-09T05:34:02.240Z,11.19
2019-05-09T05:35:02.252Z,11.04
2019-05-09T05:36:02.218Z,11.03
2019-05-09T05:37:02.233Z,11.24
2019-05-09T05:38:02.211Z,11.39
2019-05-09T05:39:02.212Z,11.85
2019-05-09T05:40:02.173Z,11.98
2019-05-09T05:41:02.193Z,12.04
2019-05-09T05:42:02.153Z,12.27
2019-05-09T05:43:02.196Z,12.29
2019-05-09T05:44:02.129Z,12.46
2019-05-09T05:45:02.118Z,12.68
2019-05-09T05:46:02.129Z,12.85
2019-05-09T05:47:02.097Z,12.75
2019-05-09T05:48:02.086Z,12.65
2019-05-09T05:49:02.103Z,12.78
2019-05-09T05:50:02.070Z,12.83
2019-05-09T05:51:02.050Z,13.07
2019-05-09T05:52:02.038Z,13.17
2019-05-09T05:53:02.026Z,13.23
2019-05-09T05:54:02.041Z,13.32
2019-05-09T05:55:02.003Z,13.25
2019-05-09T05:56:01.993Z,13.19
2019-05-09T05:57:01.983Z,13.03
2019-05-09T05:58:02.030Z,12.82
2019-05-09T05:59:01.998Z,12.52
2019-05-09T06:00:01.948Z,12.60
2019-05-09T06:01:04.406Z,12.77
2019-05-09T06:02:01.924Z,12.89
2019-05-09T06:03:01.913Z,13.28
2019-05-09T06:04:01.916Z,13.29
2019-05-09T06:05:01.947Z,12.97
2019-05-09T06:06:01.885Z,12.87
2019-05-09T06:07:01.868Z,12.49
2019-05-09T06:08:01.859Z,12.41
2019-05-09T06:09:01.844Z,12.42
2019-05-09T06:10:01.849Z,12.35
2019-05-09T06:11:01.904Z,12.13
2019-05-09T06:12:01.810Z,11.98
2019-05-09T06:13:01.820Z,11.88
2019-05-09T06:14:08.344Z,11.85
2019-05-09T06:15:02.799Z,12.04
2019-05-09T06:16:01.766Z,12.05
2019-05-09T06:17:01.754Z,12.12
2019-05-09T06:18:01.743Z,12.05
2019-05-09T06:19:01.735Z,12.29
2019-05-09T06:20:01.745Z,12.53
2019-05-09T06:21:01.711Z,13.03
2019-05-09T06:22:01.699Z,13.10
2019-05-09T06:23:01.705Z,12.92
2019-05-09T06:24:01.673Z,13.11
2019-05-09T06:25:01.675Z,13.14
2019-05-09T06:26:01.731Z,13.36
2019-05-09T06:27:01.641Z,13.51
2019-05-09T06:28:01.654Z,13.60
2019-05-09T06:29:01.644Z,13.41
2019-05-09T06:30:01.613Z,12.96
2019-05-09T06:31:01.595Z,12.59
2019-05-09T06:32:01.585Z,12.46
2019-05-09T06:33:04.904Z,12.45
2019-05-09T06:34:01.565Z,12.47
2019-05-09T06:35:01.552Z,12.29
2019-05-09T06:36:01.540Z,12.09
2019-05-09T06:37:03.198Z,12.10
2019-05-09T06:38:01.516Z,12.14
2019-05-09T06:39:01.507Z,12.09
2019-05-09T06:40:01.493Z,12.01
2019-05-09T06:41:01.505Z,11.82
2019-05-09T06:42:01.471Z,11.86
2019-05-09T06:43:01.460Z,11.86
2019-05-09T06:44:13.118Z,11.95
2019-05-09T06:45:02.440Z,11.94
2019-05-09T06:46:01.426Z,11.90
2019-05-09T06:47:01.432Z,11.90
2019-05-09T06:48:01.404Z,11.86
2019-05-09T06:49:20.183Z,11.95
2019-05-09T06:50:02.380Z,12.01
2019-05-09T06:51:01.368Z,12.12
2019-05-09T06:52:01.358Z,12.10
2019-05-09T06:53:01.374Z,12.13
2019-05-09T06:54:01.334Z,12.14
2019-05-09T06:55:01.323Z,12.21
2019-05-09T06:56:01.312Z,12.29
2019-05-09T06:57:01.323Z,12.38
2019-05-09T06:58:01.319Z,12.45
2019-05-09T06:59:01.285Z,12.64
2019-05-09T07:00:01.271Z,12.59
2019-05-09T07:01:01.256Z,12.65
2019-05-09T07:02:01.255Z,12.78
2019-05-09T07:03:01.251Z,13.30
2019-05-09T07:04:01.225Z,13.45
2019-05-09T07:05:01.221Z,13.44
2019-05-09T07:06:01.201Z,13.30
2019-05-09T07:07:01.189Z,13.29
2019-05-09T07:08:01.203Z,13.30
2019-05-09T07:09:01.192Z,13.25
2019-05-09T07:10:01.158Z,13.17
2019-05-09T07:11:01.145Z,13.11
2019-05-09T07:12:01.134Z,13.12
2019-05-09T07:13:01.124Z,13.08
2019-05-09T07:14:01.141Z,13.14
2019-05-09T07:15:01.101Z,13.11
2019-05-09T07:16:01.086Z,13.17
2019-05-09T07:17:01.083Z,13.11
2019-05-09T07:18:01.092Z,13.14
2019-05-09T07:19:01.052Z,13.22
2019-05-09T07:20:01.070Z,13.38
2019-05-09T07:21:01.030Z,13.38
2019-05-09T07:22:01.024Z,13.42
2019-05-09T07:23:01.038Z,13.51
2019-05-09T07:24:00.996Z,13.49
2019-05-09T07:25:06.563Z,13.55
2019-05-09T07:26:01.974Z,13.46
2019-05-09T07:27:00.964Z,13.41
2019-05-09T07:28:00.952Z,13.49
2019-05-09T07:29:00.973Z,13.32
2019-05-09T07:30:00.929Z,13.42
2019-05-09T07:31:00.917Z,13.41
2019-05-09T07:32:00.908Z,13.51
2019-05-09T07:33:00.947Z,13.81
2019-05-09T07:34:00.922Z,14.10
2019-05-09T07:35:00.873Z,14.15
2019-05-09T07:36:00.862Z,14.47
2019-05-09T07:37:00.855Z,14.51
2019-05-09T07:38:00.841Z,14.24
2019-05-09T07:39:00.863Z,14.20
2019-05-09T07:40:00.815Z,14.15
2019-05-09T07:41:00.808Z,13.95
2019-05-09T07:42:00.818Z,14.28
2019-05-09T07:43:00.783Z,14.46
2019-05-09T07:44:00.771Z,14.95
2019-05-09T07:45:00.798Z,14.84
2019-05-09T07:46:00.750Z,14.50
2019-05-09T07:47:00.738Z,14.51
2019-05-09T07:48:00.727Z,14.35
2019-05-09T07:49:00.716Z,14.37
2019-05-09T07:50:00.728Z,14.24
2019-05-09T07:51:00.697Z,14.40
2019-05-09T07:52:06.875Z,14.36
2019-05-09T07:53:01.696Z,14.39
2019-05-09T07:54:00.661Z,14.36
2019-05-09T07:55:00.647Z,14.37
2019-05-09T07:56:00.643Z,14.27
2019-05-09T07:57:00.641Z,14.25
2019-05-09T07:58:00.613Z,14.33
2019-05-09T07:59:00.602Z,14.27
2019-05-09T08:00:00.593Z,14.21
2019-05-09T08:01:01.656Z,13.99
2019-05-09T08:02:00.603Z,13.89
2019-05-09T08:03:00.558Z,13.85
2019-05-09T08:04:00.547Z,13.81
2019-05-09T08:05:00.537Z,13.82
2019-05-09T08:06:00.528Z,13.63
2019-05-09T08:07:00.538Z,13.62
2019-05-09T08:08:00.502Z,13.71
2019-05-09T08:09:00.491Z,13.84
2019-05-09T08:10:00.482Z,14.24
2019-05-09T08:11:00.467Z,14.91
2019-05-09T08:12:00.484Z,15.59
2019-05-09T08:13:00.443Z,16.31
2019-05-09T08:14:00.451Z,16.60
2019-05-09T08:15:10.393Z,16.34
2019-05-09T08:16:01.416Z,16.61
2019-05-09T08:17:00.400Z,17.11
2019-05-09T08:18:00.411Z,17.41
2019-05-09T08:19:00.381Z,18.10
2019-05-09T08:20:00.367Z,18.23
2019-05-09T08:21:00.384Z,17.72
2019-05-09T08:22:00.343Z,17.43
2019-05-09T08:23:02.102Z,16.85
2019-05-09T08:24:00.320Z,16.38
2019-05-09T08:25:00.309Z,16.33
2019-05-09T08:26:04.312Z,16.14
2019-05-09T08:27:00.288Z,15.89
2019-05-09T08:28:00.302Z,15.75
2019-05-09T08:29:00.298Z,15.53
2019-05-09T08:30:00.283Z,15.83
2019-05-09T08:31:00.241Z,15.76
2019-05-09T08:32:00.243Z,15.75
2019-05-09T08:33:00.245Z,15.60
2019-05-09T08:34:00.212Z,15.62
2019-05-09T08:35:00.221Z,15.44
2019-05-09T08:36:00.187Z,15.38
2019-05-09T08:37:00.175Z,15.27
2019-05-09T08:38:00.174Z,15.09
2019-05-09T08:39:00.164Z,15.28
2019-05-09T08:40:00.169Z,15.27
2019-05-09T08:41:00.129Z,15.29
2019-05-09T08:42:00.157Z,15.20
2019-05-09T08:43:00.111Z,15.25
2019-05-09T08:44:00.098Z,15.34
2019-05-09T08:45:00.091Z,15.34
2019-05-09T08:46:00.079Z,15.86
2019-05-09T08:47:00.095Z,16.78
2019-05-09T08:48:00.079Z,17.26
2019-05-09T08:49:00.062Z,17.00
2019-05-09T08:50:00.028Z,16.60
2019-05-09T08:51:00.023Z,16.86
2019-05-09T08:52:10.144Z,17.15
2019-05-09T08:53:01.025Z,17.66
2019-05-09T08:53:59.982Z,17.72
2019-05-09T08:54:59.974Z,17.95
2019-05-09T08:55:59.961Z,18.20
2019-05-09T08:56:59.954Z,18.27
2019-05-09T08:57:59.972Z,18.50
2019-05-09T08:59:02.251Z,18.44
2019-05-09T08:59:59.916Z,18.55
2019-05-09T09:01:03.672Z,18.69
2019-05-09T09:02:15.014Z,18.76
2019-05-09T09:03:00.880Z,18.81
2019-05-09T09:03:59.894Z,18.54
2019-05-09T09:04:59.860Z,18.54
2019-05-09T09:05:59.848Z,18.60
2019-05-09T09:06:59.837Z,18.80
2019-05-09T09:07:59.856Z,18.33
2019-05-09T09:08:59.815Z,17.79
2019-05-09T09:09:59.854Z,17.75
2019-05-09T09:10:59.795Z,17.48
2019-05-09T09:11:59.784Z,17.90
2019-05-09T09:12:59.771Z,18.21
2019-05-09T09:13:59.760Z,18.25
2019-05-09T09:14:59.776Z,18.27
2019-05-09T09:16:14.961Z,17.93
2019-05-09T09:17:00.729Z,17.99
2019-05-09T09:17:59.737Z,18.10
2019-05-09T09:18:59.701Z,17.40
2019-05-09T09:19:59.690Z,17.15
2019-05-09T09:20:59.679Z,17.43
2019-05-09T09:22:00.665Z,16.89
2019-05-09T09:22:59.680Z,16.88
2019-05-09T09:23:59.677Z,16.78
2019-05-09T09:24:59.642Z,16.48
2019-05-09T09:25:59.622Z,16.48
2019-05-09T09:26:59.614Z,16.31
2019-05-09T09:27:59.604Z,16.11
2019-05-09T09:28:59.615Z,16.07
2019-05-09T09:30:15.519Z,16.91
2019-05-09T09:31:00.566Z,17.66
2019-05-09T09:31:59.563Z,18.29
2019-05-09T09:32:59.544Z,17.77
2019-05-09T09:33:59.570Z,17.23
2019-05-09T09:34:59.523Z,16.86
2019-05-09T09:35:59.515Z,16.88
2019-05-09T09:37:03.075Z,16.43
2019-05-09T09:38:00.512Z,16.83
2019-05-09T09:39:02.871Z,17.41
2019-05-09T09:39:59.468Z,17.68
2019-05-09T09:40:59.459Z,17.72
2019-05-09T09:41:59.443Z,17.75
2019-05-09T09:42:59.463Z,18.25
2019-05-09T09:43:59.420Z,18.42
2019-05-09T09:44:59.411Z,18.48
2019-05-09T09:46:11.006Z,18.76
2019-05-09T09:47:00.387Z,18.66
2019-05-09T09:47:59.441Z,18.82
2019-05-09T09:48:59.366Z,18.41
2019-05-09T09:50:00.509Z,18.69
2019-05-09T09:50:59.374Z,18.21
2019-05-09T09:51:59.332Z,17.92
2019-05-09T09:52:59.318Z,17.64
2019-05-09T09:53:59.309Z,17.22
2019-05-09T09:54:59.299Z,17.15
2019-05-09T09:56:00.266Z,17.07
2019-05-09T09:56:59.275Z,16.94
2019-05-09T09:57:59.266Z,16.81
2019-05-09T09:58:59.274Z,16.70
2019-05-09T09:59:59.269Z,16.63
2019-05-09T10:01:02.964Z,16.70
2019-05-09T10:01:59.257Z,16.89
2019-05-09T10:02:59.210Z,16.89
2019-05-09T10:04:15.292Z,17.00
2019-05-09T10:05:00.182Z,16.97
2019-05-09T10:05:59.173Z,17.03
2019-05-09T10:06:59.197Z,17.01
2019-05-09T10:07:59.154Z,16.86
2019-05-09T10:08:59.144Z,16.68
2019-05-09T10:09:59.128Z,16.66
2019-05-09T10:10:59.231Z,16.67
2019-05-09T10:12:00.793Z,16.46
2019-05-09T10:13:03.668Z,16.35
2019-05-09T10:14:00.085Z,16.15
2019-05-09T10:14:59.076Z,16.34
2019-05-09T10:15:59.061Z,16.42
2019-05-09T10:16:59.074Z,16.64
2019-05-09T10:17:59.038Z,16.82
2019-05-09T10:18:59.051Z,17.25
2019-05-09T10:19:59.018Z,17.37
2019-05-09T10:20:59.008Z,17.44
2019-05-09T10:21:58.997Z,17.66
2019-05-09T10:23:10.107Z,17.63
2019-05-09T10:23:59.988Z,17.70
2019-05-09T10:24:58.982Z,18.21
2019-05-09T10:25:58.949Z,18.47
2019-05-09T10:26:58.939Z,18.17
2019-05-09T10:27:58.932Z,18.23
2019-05-09T10:28:58.918Z,18.42
2019-05-09T10:29:58.946Z,18.98
2019-05-09T10:30:58.896Z,19.40
2019-05-09T10:31:58.885Z,19.40
2019-05-09T10:32:58.871Z,19.55
2019-05-09T10:33:58.887Z,19.78
2019-05-09T10:34:58.863Z,19.92
2019-05-09T10:36:04.041Z,19.96
2019-05-09T10:36:59.840Z,20.03
2019-05-09T10:37:59.081Z,20.13
2019-05-09T10:38:58.812Z,20.14
2019-05-09T10:39:58.796Z,20.16
2019-05-09T10:41:00.900Z,20.20
2019-05-09T10:41:58.771Z,20.03
2019-05-09T10:42:58.813Z,19.73
2019-05-09T10:43:58.760Z,19.68
2019-05-09T10:44:58.737Z,19.58
2019-05-09T10:45:58.758Z,19.28
2019-05-09T10:47:02.237Z,19.68
2019-05-09T10:47:58.709Z,19.46
2019-05-09T10:48:58.897Z,18.99
2019-05-09T10:49:58.681Z,18.58
2019-05-09T10:51:04.690Z,18.29
2019-05-09T10:51:59.657Z,17.79
2019-05-09T10:52:58.719Z,18.27
2019-05-09T10:53:58.978Z,18.88
2019-05-09T10:54:58.628Z,18.98
2019-05-09T10:55:58.642Z,18.63
2019-05-09T10:56:58.608Z,18.48
2019-05-09T10:58:02.433Z,18.41
2019-05-09T10:58:58.774Z,18.80
2019-05-09T10:59:58.576Z,18.82
2019-05-09T11:00:58.900Z,18.73
2019-05-09T11:01:58.548Z,18.65
2019-05-09T11:02:58.568Z,18.52
2019-05-09T11:03:59.112Z,18.37
2019-05-09T11:04:58.539Z,18.21
2019-05-09T11:05:58.505Z,18.30
2019-05-09T11:06:58.492Z,19.06
2019-05-09T11:07:58.898Z,19.00
2019-05-09T11:08:58.773Z,19.33
2019-05-09T11:09:58.963Z,19.61
2019-05-09T11:10:58.473Z,19.91
2019-05-09T11:12:01.011Z,19.63
2019-05-09T11:12:58.601Z,19.83
2019-05-09T11:13:59.080Z,19.54
2019-05-09T11:14:59.432Z,19.65
2019-05-09T11:15:58.507Z,19.86
2019-05-09T11:17:07.800Z,19.87
2019-05-09T11:17:59.369Z,19.91
2019-05-09T11:18:58.795Z,19.41
2019-05-09T11:19:58.915Z,19.19
2019-05-09T11:20:58.335Z,19.18
2019-05-09T11:21:58.698Z,19.18
2019-05-09T11:22:58.434Z,19.06
2019-05-09T11:23:58.730Z,18.90
2019-05-09T11:24:58.316Z,18.82
2019-05-09T11:25:58.280Z,18.87
2019-05-09T11:26:58.924Z,19.48
2019-05-09T11:28:10.214Z,20.05
2019-05-09T11:28:59.248Z,20.11
2019-05-09T11:29:58.234Z,19.86
2019-05-09T11:30:58.501Z,19.98
2019-05-09T11:31:58.816Z,20.28
2019-05-09T11:32:59.781Z,20.42
2019-05-09T11:33:58.261Z,20.41
2019-05-09T11:34:58.177Z,20.26
2019-05-09T11:35:58.246Z,20.14
2019-05-09T11:36:58.182Z,20.05
2019-05-09T11:37:58.793Z,20.13
2019-05-09T11:39:00.643Z,20.24
2019-05-09T11:39:58.219Z,20.24
2019-05-09T11:40:58.174Z,20.26
2019-05-09T11:41:58.826Z,20.32
2019-05-09T11:42:58.100Z,20.51
2019-05-09T11:43:59.451Z,20.36
2019-05-09T11:44:58.268Z,20.47
2019-05-09T11:45:58.788Z,20.02
2019-05-09T11:46:58.327Z,19.84
2019-05-09T11:47:58.380Z,19.76
2019-05-09T11:48:58.553Z,19.74
2019-05-09T11:49:58.190Z,19.96
2019-05-09T11:50:58.948Z,19.63
2019-05-09T11:51:57.991Z,19.28
2019-05-09T11:52:59.911Z,19.18
2019-05-09T11:53:58.226Z,19.28
2019-05-09T11:54:58.153Z,19.39
2019-05-09T11:55:58.011Z,19.07
2019-05-09T11:56:57.935Z,18.80
2019-05-09T11:57:59.040Z,18.52
2019-05-09T11:58:58.161Z,18.37
2019-05-09T11:59:58.079Z,18.23
2019-05-09T12:00:57.887Z,18.12
2019-05-09T12:01:58.618Z,18.17
2019-05-09T12:02:58.335Z,18.23
2019-05-09T12:03:57.976Z,18.33
2019-05-09T12:04:57.842Z,18.42
2019-05-09T12:05:58.369Z,18.52
2019-05-09T12:06:57.896Z,18.75
2019-05-09T12:07:58.313Z,18.70
2019-05-09T12:08:58.799Z,18.76
2019-05-09T12:09:58.946Z,18.95
2019-05-09T12:10:58.015Z,18.80
2019-05-09T12:11:58.971Z,18.78
2019-05-09T12:12:57.835Z,18.62
2019-05-09T12:13:58.305Z,18.54
2019-05-09T12:14:58.297Z,18.47
2019-05-09T12:15:58.433Z,18.32
2019-05-09T12:16:57.726Z,18.27
2019-05-09T12:18:02.939Z,18.15
2019-05-09T12:18:58.765Z,18.12
2019-05-09T12:20:09.505Z,18.25
2019-05-09T12:20:58.671Z,17.97
2019-05-09T12:21:58.283Z,17.95
2019-05-09T12:22:58.485Z,17.95
2019-05-09T12:23:58.380Z,17.97
2019-05-09T12:24:59.284Z,18.25
2019-05-09T12:25:58.182Z,18.17
2019-05-09T12:26:59.761Z,18.21
2019-05-09T12:27:58.773Z,18.30
2019-05-09T12:28:57.934Z,18.20
2019-05-09T12:29:58.278Z,18.00
2019-05-09T12:30:57.555Z,17.97
2019-05-09T12:31:57.541Z,18.10
2019-05-09T12:32:58.929Z,18.14
2019-05-09T12:33:59.226Z,18.14
2019-05-09T12:34:57.834Z,18.29
2019-05-09T12:35:59.316Z,18.27
2019-05-09T12:36:58.566Z,18.47
2019-05-09T12:37:57.482Z,18.41
2019-05-09T12:38:59.119Z,18.50
2019-05-09T12:39:58.589Z,18.52
2019-05-09T12:41:00.479Z,18.52
2019-05-09T12:41:57.969Z,18.63
2019-05-09T12:42:57.418Z,18.69
2019-05-09T12:43:57.665Z,18.67
2019-05-09T12:44:58.988Z,18.69
2019-05-09T12:45:57.812Z,18.52
2019-05-09T12:46:58.116Z,18.45
2019-05-09T12:48:07.660Z,18.54
2019-05-09T12:48:59.049Z,18.54
2019-05-09T12:50:00.415Z,18.51
2019-05-09T12:50:58.883Z,18.52
2019-05-09T12:51:58.127Z,18.35
2019-05-09T12:52:58.006Z,18.33
2019-05-09T12:53:58.050Z,18.32
2019-05-09T12:54:58.260Z,18.29
2019-05-09T12:55:57.800Z,17.90
2019-05-09T12:56:59.135Z,17.92
2019-05-09T12:57:59.473Z,17.93